Time;durP1;ratioP1;P1;durP2;ratioP2;P2;SDS_P1;SDS_P2;PMS_P1;PMS_P2;Temp;Humidity;BMP_temperature;BMP_pressure;BME280_temperature;BME280_humidity;BME280_pressure;Samples;Min_cycle;Max_cycle;Signal;HPM_P1;HPM_P2
2023/08/17 00:00:30;;;;;;;1.90;1.80;;;28.70;55.10;;;;;;5167304;27;45552;-80
2023/08/17 00:02:57;;;;;;;2.00;1.90;;;28.70;55.20;;;;;;5164796;27;45370;-80
2023/08/17 00:05:26;;;;;;;2.83;2.13;;;28.70;55.20;;;;;;5162388;27;45717;-81
2023/08/17 00:07:53;;;;;;;2.15;1.95;;;28.70;55.20;;;;;;5165307;27;45244;-78
2023/08/17 00:10:20;;;;;;;3.22;1.67;;;28.70;55.30;;;;;;5162770;27;45603;-79
2023/08/17 00:12:47;;;;;;;2.05;1.88;;;28.70;55.30;;;;;;5165861;27;46716;-79
2023/08/17 00:15:13;;;;;;;4.25;2.15;;;28.70;55.30;;;;;;5158887;27;45377;-80
2023/08/17 00:17:40;;;;;;;2.00;1.90;;;28.60;55.30;;;;;;5155457;27;45286;-80
2023/08/17 00:20:09;;;;;;;3.13;2.45;;;28.60;55.90;;;;;;5156987;27;45101;-80
2023/08/17 00:22:38;;;;;;;2.17;1.95;;;28.60;55.30;;;;;;5154911;27;46632;-80
2023/08/17 00:25:06;;;;;;;1.80;1.70;;;28.60;55.30;;;;;;5156377;27;45493;-80
2023/08/17 00:27:33;;;;;;;2.13;1.88;;;28.60;55.40;;;;;;5154496;27;45315;-79
2023/08/17 00:29:59;;;;;;;3.80;2.03;;;28.50;55.30;;;;;;5154031;27;45276;-80
2023/08/17 00:32:26;;;;;;;2.08;1.90;;;28.50;55.30;;;;;;5154770;27;46723;-80
2023/08/17 00:34:53;;;;;;;2.45;2.22;;;28.50;55.30;;;;;;5153500;27;45409;-80
2023/08/17 00:37:20;;;;;;;2.08;1.70;;;28.50;55.90;;;;;;5154362;27;45312;-80
2023/08/17 00:39:48;;;;;;;2.20;1.85;;;28.50;55.40;;;;;;5154638;27;45187;-79
2023/08/17 00:42:15;;;;;;;1.75;1.65;;;28.50;55.30;;;;;;5153473;27;45491;-80
2023/08/17 00:44:42;;;;;;;2.33;1.98;;;28.50;55.40;;;;;;5158268;27;45391;-79
2023/08/17 00:47:09;;;;;;;2.15;2.05;;;28.50;55.40;;;;;;5154565;27;45377;-80
2023/08/17 00:49:36;;;;;;;2.83;2.10;;;28.40;55.30;;;;;;5157860;27;45426;-81
2023/08/17 00:52:03;;;;;;;1.75;1.65;;;28.40;55.40;;;;;;5155977;27;46273;-80
2023/08/17 00:54:30;;;;;;;1.85;1.75;;;28.40;55.40;;;;;;5152622;27;46479;-80
2023/08/17 00:56:59;;;;;;;2.05;1.90;;;28.40;55.40;;;;;;5158075;27;45250;-80
2023/08/17 00:59:26;;;;;;;2.20;1.90;;;28.40;55.50;;;;;;5155448;27;45366;-81
2023/08/17 01:01:52;;;;;;;2.30;1.58;;;28.30;55.50;;;;;;5151590;27;45531;-80
2023/08/17 01:04:19;;;;;;;1.80;1.70;;;28.30;55.50;;;;;;5155693;27;45211;-80
2023/08/17 01:06:46;;;;;;;1.60;1.50;;;28.30;55.50;;;;;;5158087;27;45250;-79
2023/08/17 01:09:13;;;;;;;2.03;1.88;;;28.30;55.50;;;;;;5155565;27;45536;-80
2023/08/17 01:11:42;;;;;;;2.00;1.80;;;28.30;55.50;;;;;;5153499;27;46717;-80
2023/08/17 01:14:13;;;;;;;2.05;1.67;;;28.30;55.50;;;;;;5152982;27;45180;-80
2023/08/17 01:16:43;;;;;;;1.90;1.80;;;28.20;55.50;;;;;;5153152;27;45384;-80
2023/08/17 01:19:10;;;;;;;1.85;1.55;;;28.20;55.50;;;;;;5153555;27;45320;-80
2023/08/17 01:21:43;;;;;;;1.70;1.60;;;28.20;55.50;;;;;;5152281;27;45563;-80
2023/08/17 01:24:12;;;;;;;2.47;1.77;;;28.20;55.50;;;;;;5151436;27;45271;-80
2023/08/17 01:26:38;;;;;;;1.73;1.63;;;28.20;55.50;;;;;;5152116;27;45384;-80
2023/08/17 01:29:05;;;;;;;1.60;1.50;;;28.20;55.60;;;;;;5152295;27;45385;-79
2023/08/17 01:31:35;;;;;;;1.92;1.73;;;28.20;55.60;;;;;;5150840;27;45501;-80
2023/08/17 01:34:04;;;;;;;1.67;1.58;;;28.10;55.50;;;;;;5151855;27;45525;-79
2023/08/17 01:36:33;;;;;;;1.90;1.80;;;28.10;55.50;;;;;;5151879;27;45491;-79
2023/08/17 01:38:59;;;;;;;1.90;1.80;;;28.10;56.20;;;;;;5153821;27;45400;-80
2023/08/17 01:41:28;;;;;;;2.13;1.58;;;28.10;56.10;;;;;;5152439;27;45544;-80
2023/08/17 01:43:54;;;;;;;1.95;1.85;;;28.10;55.60;;;;;;5151926;27;45434;-80
2023/08/17 01:46:21;;;;;;;1.90;1.80;;;28.10;55.50;;;;;;5152851;27;45366;-80
2023/08/17 01:48:48;;;;;;;1.42;1.33;;;28.10;55.60;;;;;;5150356;27;45501;-80
2023/08/17 01:51:18;;;;;;;1.45;1.35;;;28.10;55.60;;;;;;5152983;27;46333;-80
2023/08/17 01:53:45;;;;;;;1.60;1.50;;;28.00;55.50;;;;;;5149322;27;45370;-80
2023/08/17 01:56:12;;;;;;;1.70;1.60;;;28.00;55.60;;;;;;5151612;27;45389;-80
2023/08/17 01:58:40;;;;;;;1.80;1.70;;;28.00;55.70;;;;;;5150416;27;45298;-79
2023/08/17 02:01:07;;;;;;;1.70;1.60;;;28.00;55.60;;;;;;5149832;27;45389;-78
2023/08/17 02:03:34;;;;;;;2.08;1.42;;;28.00;55.60;;;;;;5150419;27;45397;-80
2023/08/17 02:06:01;;;;;;;2.17;1.60;;;28.00;55.60;;;;;;5147482;27;45391;-80
2023/08/17 02:08:28;;;;;;;1.88;1.77;;;28.00;55.60;;;;;;5150064;27;45240;-79
2023/08/17 02:10:55;;;;;;;1.63;1.52;;;28.00;55.60;;;;;;5149384;27;47562;-80
2023/08/17 02:13:22;;;;;;;1.90;1.80;;;28.00;55.70;;;;;;5149580;27;45252;-79
2023/08/17 02:15:50;;;;;;;1.90;1.80;;;27.90;55.60;;;;;;5149107;27;45335;-80
2023/08/17 02:18:17;;;;;;;2.10;1.40;;;27.90;55.60;;;;;;5149915;27;45421;-79
2023/08/17 02:20:43;;;;;;;1.40;1.40;;;27.90;55.70;;;;;;5147039;27;46220;-79
2023/08/17 02:23:10;;;;;;;3.13;1.70;;;27.90;55.70;;;;;;5150552;27;45200;-79
2023/08/17 02:25:39;;;;;;;1.48;1.38;;;27.90;55.70;;;;;;5149729;27;45273;-79
2023/08/17 02:28:06;;;;;;;1.70;1.60;;;27.90;55.70;;;;;;5149777;27;45486;-78
2023/08/17 02:30:33;;;;;;;1.98;1.88;;;27.80;55.60;;;;;;5149766;27;45298;-78
2023/08/17 02:33:01;;;;;;;1.50;1.40;;;27.80;55.70;;;;;;5149018;27;45253;-79
2023/08/17 02:35:28;;;;;;;1.70;1.60;;;27.80;55.60;;;;;;5149252;27;45382;-79
2023/08/17 02:37:55;;;;;;;1.70;1.60;;;27.80;55.60;;;;;;5149110;27;45416;-79
2023/08/17 02:40:22;;;;;;;1.38;1.27;;;27.80;55.60;;;;;;5149058;27;46541;-79
2023/08/17 02:42:49;;;;;;;1.83;1.73;;;27.80;55.60;;;;;;5159317;27;45199;-79
2023/08/17 02:45:16;;;;;;;1.50;1.40;;;27.80;55.70;;;;;;5152078;27;45313;-79
2023/08/17 02:47:42;;;;;;;1.90;1.50;;;27.70;55.60;;;;;;5150768;27;45488;-79
2023/08/17 02:50:11;;;;;;;1.50;1.40;;;27.70;55.70;;;;;;5150365;27;46510;-78
2023/08/17 02:52:38;;;;;;;1.95;1.60;;;27.70;55.70;;;;;;5147673;27;45303;-79
2023/08/17 02:55:06;;;;;;;1.25;1.20;;;27.70;55.70;;;;;;5149368;27;45280;-79
2023/08/17 02:57:32;;;;;;;1.63;1.50;;;27.70;55.70;;;;;;5151948;27;45223;-79
2023/08/17 02:59:59;;;;;;;1.70;1.60;;;27.70;55.70;;;;;;5150640;27;45350;-79
2023/08/17 03:02:26;;;;;;;1.50;1.40;;;27.70;55.80;;;;;;5150821;27;45959;-78
2023/08/17 03:04:53;;;;;;;1.42;1.33;;;27.60;55.70;;;;;;5152721;27;45302;-78
2023/08/17 03:07:21;;;;;;;1.88;1.70;;;27.60;55.70;;;;;;5154536;27;45155;-78
2023/08/17 03:09:48;;;;;;;1.58;1.48;;;27.60;55.80;;;;;;5154334;27;45409;-78
2023/08/17 03:12:15;;;;;;;1.33;1.27;;;27.60;55.70;;;;;;5155448;27;45344;-78
2023/08/17 03:14:42;;;;;;;1.60;1.50;;;27.60;55.70;;;;;;5154933;27;45445;-78
2023/08/17 03:17:09;;;;;;;1.30;1.23;;;27.60;55.80;;;;;;5155801;27;45236;-79
2023/08/17 03:19:36;;;;;;;1.58;1.48;;;27.60;55.80;;;;;;5155434;27;45336;-78
2023/08/17 03:22:02;;;;;;;1.58;1.48;;;27.60;55.80;;;;;;5157060;27;45362;-78
2023/08/17 03:24:31;;;;;;;1.50;1.38;;;27.50;55.70;;;;;;5156006;27;45370;-79
2023/08/17 03:26:58;;;;;;;1.55;1.23;;;27.50;55.70;;;;;;5157086;27;45363;-78
2023/08/17 03:29:25;;;;;;;1.98;1.77;;;27.50;55.80;;;;;;5155000;27;46436;-78
2023/08/17 03:31:52;;;;;;;1.52;1.42;;;27.50;55.80;;;;;;5158098;27;45249;-79
2023/08/17 03:34:19;;;;;;;2.03;1.55;;;27.50;55.80;;;;;;5159788;27;45423;-79
2023/08/17 03:36:46;;;;;;;1.50;1.40;;;27.40;55.80;;;;;;5155544;27;45401;-79
2023/08/17 03:39:13;;;;;;;1.70;1.60;;;27.40;55.80;;;;;;5156436;27;45707;-79
2023/08/17 03:41:42;;;;;;;1.60;1.50;;;27.40;55.90;;;;;;5154574;27;45168;-79
2023/08/17 03:44:09;;;;;;;1.88;1.60;;;27.40;55.90;;;;;;5153450;27;45326;-78
2023/08/17 03:46:36;;;;;;;2.13;1.60;;;27.40;55.90;;;;;;5152845;27;45466;-79
2023/08/17 03:49:03;;;;;;;2.33;1.60;;;27.40;55.90;;;;;;5152271;27;46367;-79
2023/08/17 03:51:30;;;;;;;1.50;1.40;;;27.40;56.00;;;;;;5152520;27;45311;-79
2023/08/17 03:53:57;;;;;;;1.60;1.50;;;27.30;55.90;;;;;;5152249;27;45357;-78
2023/08/17 03:56:23;;;;;;;1.50;1.40;;;27.40;56.00;;;;;;5150140;27;45335;-78
2023/08/17 03:58:54;;;;;;;1.65;1.55;;;27.40;56.00;;;;;;5151212;27;46660;-79
2023/08/17 04:01:21;;;;;;;1.55;1.45;;;27.40;56.00;;;;;;5151330;27;45179;-78
2023/08/17 04:03:48;;;;;;;2.85;1.70;;;27.40;56.00;;;;;;5151392;27;45336;-79
2023/08/17 04:06:14;;;;;;;1.40;1.30;;;27.40;55.90;;;;;;5151744;27;45553;-79
2023/08/17 04:08:41;;;;;;;2.03;1.83;;;27.40;55.90;;;;;;5150956;27;46928;-79
2023/08/17 04:11:08;;;;;;;1.50;1.40;;;27.30;55.90;;;;;;5150901;27;45288;-79
2023/08/17 04:13:35;;;;;;;1.63;1.52;;;27.30;55.90;;;;;;5151329;27;45283;-78
2023/08/17 04:16:03;;;;;;;1.35;1.27;;;27.30;55.90;;;;;;5151447;27;45300;-79
2023/08/17 04:18:29;;;;;;;1.73;1.63;;;27.30;55.90;;;;;;5150805;27;45547;-79
2023/08/17 04:20:56;;;;;;;1.50;1.40;;;27.30;55.90;;;;;;5150891;27;45327;-79
2023/08/17 04:23:23;;;;;;;1.90;1.60;;;27.30;56.50;;;;;;5150990;27;45327;-78
2023/08/17 04:25:50;;;;;;;1.70;1.60;;;27.30;56.00;;;;;;5151180;27;45384;-79
2023/08/17 04:28:17;;;;;;;1.85;1.70;;;27.30;56.00;;;;;;5150698;27;45207;-79
2023/08/17 04:30:43;;;;;;;1.80;1.70;;;27.30;56.00;;;;;;5150968;27;45319;-78
2023/08/17 04:33:12;;;;;;;3.72;1.90;;;27.30;56.00;;;;;;5151228;27;45294;-79
2023/08/17 04:35:39;;;;;;;1.85;1.60;;;27.20;56.00;;;;;;5151627;27;45312;-79
2023/08/17 04:38:06;;;;;;;2.00;1.80;;;27.20;56.00;;;;;;5150883;27;45722;-79
2023/08/17 04:40:33;;;;;;;1.67;1.48;;;27.20;56.10;;;;;;5150763;27;45236;-79
2023/08/17 04:43:00;;;;;;;2.22;1.77;;;27.20;56.10;;;;;;5150773;27;45295;-79
2023/08/17 04:45:27;;;;;;;1.88;1.77;;;27.20;56.10;;;;;;5151053;27;45379;-79
2023/08/17 04:47:54;;;;;;;1.85;1.70;;;27.20;56.00;;;;;;5150484;27;45426;-79
2023/08/17 04:50:22;;;;;;;1.80;1.70;;;27.20;56.10;;;;;;5150359;27;45424;-79
2023/08/17 04:52:49;;;;;;;1.88;1.77;;;27.20;56.00;;;;;;5147877;27;45351;-79
2023/08/17 04:55:16;;;;;;;1.67;1.55;;;27.20;56.00;;;;;;5149645;27;45420;-79
2023/08/17 04:57:42;;;;;;;1.80;1.70;;;27.20;56.00;;;;;;5150332;27;45507;-79
2023/08/17 05:00:10;;;;;;;2.78;2.13;;;27.20;56.00;;;;;;5150280;27;45369;-79
2023/08/17 05:02:37;;;;;;;1.88;1.75;;;27.20;56.00;;;;;;5150577;27;45216;-79
2023/08/17 05:05:06;;;;;;;2.10;1.90;;;27.20;56.10;;;;;;5150336;27;45252;-79
2023/08/17 05:07:34;;;;;;;1.85;1.75;;;27.20;56.10;;;;;;5150501;27;46730;-79
2023/08/17 05:10:01;;;;;;;1.90;1.80;;;27.10;56.00;;;;;;5150012;27;45287;-80
2023/08/17 05:12:28;;;;;;;2.10;1.80;;;27.20;56.20;;;;;;5150427;27;45360;-79
2023/08/17 05:14:55;;;;;;;2.30;1.67;;;27.10;56.10;;;;;;5150484;27;45349;-79
2023/08/17 05:17:21;;;;;;;2.20;2.00;;;27.10;56.20;;;;;;5149946;27;46369;-79
2023/08/17 05:19:48;;;;;;;2.30;1.77;;;27.10;56.20;;;;;;5149820;27;45392;-79
2023/08/17 05:22:15;;;;;;;2.15;1.95;;;27.10;56.20;;;;;;5150019;27;45413;-79
2023/08/17 05:24:43;;;;;;;1.90;1.80;;;27.10;56.30;;;;;;5150415;27;45310;-79
2023/08/17 05:27:11;;;;;;;2.33;1.90;;;27.00;56.20;;;;;;5148799;27;46629;-79
2023/08/17 05:29:37;;;;;;;1.92;1.83;;;27.00;56.20;;;;;;5149793;27;45370;-80
2023/08/17 05:32:05;;;;;;;1.65;1.55;;;27.00;56.30;;;;;;5149948;27;45302;-79
2023/08/17 05:34:32;;;;;;;2.35;1.80;;;27.00;56.20;;;;;;5150208;27;45299;-80
2023/08/17 05:36:59;;;;;;;1.70;1.50;;;27.00;56.20;;;;;;5149821;27;46652;-79
2023/08/17 05:39:26;;;;;;;1.75;1.63;;;27.00;56.20;;;;;;5149167;27;45315;-79
2023/08/17 05:41:55;;;;;;;2.20;1.80;;;27.00;56.20;;;;;;5149176;27;45320;-80
2023/08/17 05:44:21;;;;;;;2.38;1.75;;;27.00;56.20;;;;;;5149617;27;45371;-79
2023/08/17 05:46:48;;;;;;;2.35;2.03;;;27.00;56.20;;;;;;5149237;27;46407;-80
2023/08/17 05:49:15;;;;;;;1.95;1.60;;;27.00;56.20;;;;;;5149443;27;45277;-79
2023/08/17 05:51:42;;;;;;;1.70;1.60;;;27.00;56.20;;;;;;5149773;27;45245;-80
2023/08/17 05:54:09;;;;;;;2.25;1.70;;;27.00;56.20;;;;;;5149196;27;45300;-79
2023/08/17 05:56:36;;;;;;;2.10;1.67;;;27.00;56.20;;;;;;5149142;27;46541;-79
2023/08/17 05:59:04;;;;;;;2.08;1.88;;;27.00;56.20;;;;;;5149398;27;45350;-79
2023/08/17 06:01:32;;;;;;;1.77;1.67;;;27.00;56.20;;;;;;5149115;27;45257;-79
2023/08/17 06:03:58;;;;;;;2.17;1.58;;;26.90;56.20;;;;;;5146846;27;45433;-80
2023/08/17 06:06:26;;;;;;;1.73;1.63;;;26.90;56.20;;;;;;5149633;27;45379;-79
2023/08/17 06:08:53;;;;;;;2.13;1.80;;;27.00;56.20;;;;;;5149282;27;45414;-80
2023/08/17 06:11:19;;;;;;;1.80;1.65;;;27.00;56.20;;;;;;5149384;27;45280;-79
2023/08/17 06:13:46;;;;;;;1.90;1.75;;;26.90;56.10;;;;;;5149524;27;45310;-79
2023/08/17 06:16:15;;;;;;;2.10;1.90;;;27.00;56.20;;;;;;5146616;27;45451;-79
2023/08/17 06:18:42;;;;;;;2.00;1.80;;;27.00;56.10;;;;;;5149207;27;45291;-79
2023/08/17 06:21:09;;;;;;;1.95;1.85;;;27.00;56.20;;;;;;5149326;27;45330;-80
2023/08/17 06:23:36;;;;;;;2.10;1.85;;;27.00;56.20;;;;;;5149299;27;45512;-79
2023/08/17 06:26:03;;;;;;;2.45;1.80;;;27.00;56.20;;;;;;5148093;27;46393;-80
2023/08/17 06:28:29;;;;;;;1.70;1.60;;;27.00;56.20;;;;;;5148993;27;45431;-80
2023/08/17 06:30:56;;;;;;;2.00;1.80;;;27.00;56.20;;;;;;5148974;27;45371;-79
2023/08/17 06:33:25;;;;;;;2.00;1.80;;;27.00;56.20;;;;;;5150070;27;45358;-79
2023/08/17 06:35:52;;;;;;;1.98;1.83;;;27.00;56.20;;;;;;5149039;27;46138;-79
2023/08/17 06:38:19;;;;;;;2.13;1.77;;;27.00;56.20;;;;;;5149129;27;45344;-80
2023/08/17 06:40:46;;;;;;;1.98;1.88;;;27.00;56.20;;;;;;5149191;27;45370;-79
2023/08/17 06:43:13;;;;;;;1.90;1.80;;;27.00;56.10;;;;;;5149262;27;45286;-80
2023/08/17 06:45:40;;;;;;;1.95;1.75;;;27.00;56.10;;;;;;5148471;27;45745;-80
2023/08/17 06:48:07;;;;;;;1.98;1.83;;;27.00;56.10;;;;;;5149253;27;45362;-79
2023/08/17 06:50:35;;;;;;;1.98;1.83;;;27.00;56.10;;;;;;5149024;27;45323;-80
2023/08/17 06:53:02;;;;;;;1.73;1.60;;;27.00;56.10;;;;;;5149201;27;45333;-79
2023/08/17 06:55:29;;;;;;;1.83;1.73;;;27.00;56.20;;;;;;5148302;27;47830;-80
2023/08/17 06:57:56;;;;;;;2.50;2.13;;;27.00;56.10;;;;;;5147926;27;45319;-80
2023/08/17 07:00:23;;;;;;;3.00;1.70;;;27.00;56.10;;;;;;5148939;27;45244;-79
2023/08/17 07:02:50;;;;;;;4.28;2.47;;;27.10;56.40;;;;;;5148867;27;45391;-79
2023/08/17 07:05:18;;;;;;;2.20;2.00;;;27.10;56.30;;;;;;5148653;27;45873;-79
2023/08/17 07:07:46;;;;;;;2.22;2.03;;;27.10;56.30;;;;;;5148685;27;45272;-79
2023/08/17 07:10:13;;;;;;;2.58;2.08;;;27.10;56.30;;;;;;5148377;27;45260;-78
2023/08/17 07:12:40;;;;;;;2.20;2.00;;;27.10;56.20;;;;;;5147799;27;45390;-79
2023/08/17 07:15:08;;;;;;;2.40;2.15;;;27.10;56.30;;;;;;5148157;27;45460;-79
2023/08/17 07:17:36;;;;;;;3.35;1.90;;;27.10;56.20;;;;;;5148448;27;45305;-79
2023/08/17 07:20:03;;;;;;;3.58;2.00;;;27.10;56.10;;;;;;5148662;27;45285;-79
2023/08/17 07:22:30;;;;;;;2.28;2.00;;;27.20;56.00;;;;;;5148729;27;45387;-79
2023/08/17 07:24:58;;;;;;;2.67;1.80;;;27.20;55.90;;;;;;5148028;27;46597;-79
2023/08/17 07:27:25;;;;;;;3.45;1.88;;;27.20;55.90;;;;;;5148330;27;45329;-79
2023/08/17 07:29:52;;;;;;;2.28;2.08;;;27.20;55.90;;;;;;5148145;27;45198;-79
2023/08/17 07:32:22;;;;;;;1.70;1.60;;;27.20;55.80;;;;;;5148495;27;45246;-79
2023/08/17 07:34:49;;;;;;;2.67;1.95;;;27.20;55.80;;;;;;5147726;27;46730;-79
2023/08/17 07:37:16;;;;;;;2.58;1.98;;;27.30;55.90;;;;;;5148079;27;45233;-79
2023/08/17 07:39:43;;;;;;;2.08;1.85;;;27.30;55.90;;;;;;5148149;27;45318;-79
2023/08/17 07:42:11;;;;;;;2.67;2.30;;;27.30;55.90;;;;;;5148258;27;45294;-79
2023/08/17 07:44:39;;;;;;;2.97;2.08;;;27.20;55.80;;;;;;5147756;27;47560;-79
2023/08/17 07:47:06;;;;;;;2.17;1.98;;;27.30;56.00;;;;;;5148201;27;45205;-79
2023/08/17 07:49:33;;;;;;;3.55;2.05;;;27.30;56.00;;;;;;5151143;27;45302;-79
2023/08/17 07:52:00;;;;;;;2.33;2.13;;;27.30;56.10;;;;;;5155225;27;45326;-79
2023/08/17 07:54:27;;;;;;;2.28;2.08;;;27.30;56.00;;;;;;5155048;27;45575;-79
2023/08/17 07:56:54;;;;;;;2.88;2.05;;;27.30;56.00;;;;;;5158096;27;45273;-79
2023/08/17 07:59:22;;;;;;;2.92;2.05;;;27.30;56.00;;;;;;5157508;27;45177;-79
2023/08/17 08:01:49;;;;;;;3.88;1.95;;;27.30;56.00;;;;;;5161315;27;45572;-79
2023/08/17 08:04:16;;;;;;;1.98;1.75;;;27.30;56.00;;;;;;5154724;27;46381;-80
2023/08/17 08:06:43;;;;;;;1.92;1.70;;;27.30;56.00;;;;;;5152758;27;45381;-80
2023/08/17 08:09:10;;;;;;;2.17;1.90;;;27.30;55.90;;;;;;5152256;27;45326;-79
2023/08/17 08:11:37;;;;;;;2.15;2.00;;;27.30;55.90;;;;;;5151579;27;47390;-78
2023/08/17 08:14:04;;;;;;;2.05;1.88;;;27.30;56.00;;;;;;5151164;27;45586;-79
2023/08/17 08:16:33;;;;;;;2.60;1.80;;;27.30;56.00;;;;;;5153183;27;45374;-79
2023/08/17 08:19:00;;;;;;;1.90;1.80;;;27.30;56.00;;;;;;5153702;27;45463;-79
2023/08/17 08:21:28;;;;;;;2.30;2.10;;;27.30;56.00;;;;;;5153202;27;45201;-79
2023/08/17 08:23:55;;;;;;;1.85;1.75;;;27.30;56.00;;;;;;5150838;27;46450;-79
2023/08/17 08:26:21;;;;;;;2.75;1.85;;;27.30;56.50;;;;;;5151109;27;45427;-80
2023/08/17 08:28:48;;;;;;;2.28;2.08;;;27.30;55.90;;;;;;5149200;27;45312;-79
2023/08/17 08:31:15;;;;;;;2.35;2.15;;;27.30;55.90;;;;;;5151127;27;45305;-80
2023/08/17 08:33:44;;;;;;;2.33;2.13;;;27.30;55.90;;;;;;5150669;27;47985;-79
2023/08/17 08:36:11;;;;;;;2.47;2.25;;;27.30;55.90;;;;;;5150625;27;45410;-79
2023/08/17 08:38:38;;;;;;;2.33;2.05;;;27.30;56.40;;;;;;5151461;27;45295;-78
2023/08/17 08:41:05;;;;;;;2.95;2.00;;;27.30;55.90;;;;;;5148624;27;45356;-78
2023/08/17 08:43:32;;;;;;;2.00;1.80;;;27.30;55.90;;;;;;5151661;27;45712;-78
2023/08/17 08:45:59;;;;;;;2.42;2.10;;;27.30;55.80;;;;;;5151821;27;45345;-79
2023/08/17 08:48:27;;;;;;;2.38;2.17;;;27.40;55.90;;;;;;5151603;27;45401;-78
2023/08/17 08:50:55;;;;;;;2.22;2.03;;;27.40;55.80;;;;;;5150905;27;45390;-79
2023/08/17 08:53:25;;;;;;;2.17;1.92;;;27.40;56.40;;;;;;5151191;27;46970;-78
2023/08/17 08:55:54;;;;;;;2.13;1.92;;;27.40;55.80;;;;;;5150859;27;45416;-78
2023/08/17 08:58:21;;;;;;;3.28;2.00;;;27.40;55.80;;;;;;5150992;27;45322;-79
2023/08/17 09:00:48;;;;;;;3.50;2.00;;;27.40;55.80;;;;;;5150765;27;45457;-79
2023/08/17 09:03:16;;;;;;;1.95;1.85;;;27.40;55.70;;;;;;5149884;27;45487;-78
2023/08/17 09:05:44;;;;;;;2.00;1.90;;;27.40;55.70;;;;;;5151173;27;45315;-79
2023/08/17 09:08:12;;;;;;;2.40;2.00;;;27.50;56.30;;;;;;5151264;27;45273;-79
2023/08/17 09:10:39;;;;;;;2.22;2.05;;;27.50;55.70;;;;;;5151592;27;45288;-78
2023/08/17 09:13:06;;;;;;;2.20;2.00;;;27.50;55.60;;;;;;5149357;27;46141;-79
2023/08/17 09:15:33;;;;;;;1.80;1.63;;;27.50;55.50;;;;;;5150892;27;45385;-78
2023/08/17 09:18:00;;;;;;;2.45;1.83;;;27.50;55.40;;;;;;5151000;27;45305;-79
2023/08/17 09:20:38;;;;;;;2.90;2.00;;;27.60;55.40;;;;;;5151139;27;45399;-79
2023/08/17 09:23:05;;;;;;;2.28;2.05;;;27.60;55.40;;;;;;5149553;27;46377;-78
2023/08/17 09:25:34;;;;;;;2.60;2.00;;;27.60;55.30;;;;;;5150348;27;45477;-79
2023/08/17 09:28:03;;;;;;;2.17;1.98;;;27.60;55.40;;;;;;5149979;27;45311;-80
2023/08/17 09:30:30;;;;;;;2.03;1.70;;;27.60;55.30;;;;;;5150916;27;45353;-79
2023/08/17 09:33:03;;;;;;;2.13;2.00;;;27.70;55.90;;;;;;5149704;27;45454;-79
2023/08/17 09:35:32;;;;;;;2.08;1.98;;;27.70;55.30;;;;;;5149961;27;45310;-79
2023/08/17 09:37:59;;;;;;;2.00;1.80;;;27.70;55.40;;;;;;5149134;27;45433;-79
2023/08/17 09:40:27;;;;;;;2.10;1.90;;;27.70;55.30;;;;;;5146998;27;45370;-79
2023/08/17 09:42:56;;;;;;;2.25;1.95;;;27.80;55.60;;;;;;5149675;27;47424;-78
2023/08/17 09:45:22;;;;;;;2.03;1.92;;;27.80;55.20;;;;;;5149404;27;45277;-78
2023/08/17 09:47:49;;;;;;;1.80;1.70;;;27.80;55.70;;;;;;5150017;27;45337;-80
2023/08/17 09:50:16;;;;;;;1.88;1.77;;;27.90;55.20;;;;;;5149791;27;45329;-79
2023/08/17 09:52:43;;;;;;;4.40;1.92;;;27.90;55.20;;;;;;5149677;27;45203;-79
2023/08/17 09:55:10;;;;;;;2.28;2.08;;;27.90;55.10;;;;;;5148903;27;45470;-79
2023/08/17 09:57:37;;;;;;;2.10;1.90;;;27.90;55.10;;;;;;5149521;27;45406;-80
2023/08/17 10:00:07;;;;;;;1.85;1.73;;;27.90;55.20;;;;;;5149620;27;45457;-79
2023/08/17 10:02:34;;;;;;;2.10;1.98;;;27.90;55.10;;;;;;5149243;27;46899;-80
2023/08/17 10:05:01;;;;;;;2.10;1.95;;;28.00;55.10;;;;;;5149336;27;45308;-79
2023/08/17 10:07:31;;;;;;;1.67;1.58;;;28.00;55.00;;;;;;5149341;27;45289;-79
2023/08/17 10:10:03;;;;;;;2.03;1.83;;;28.00;55.00;;;;;;5149690;27;45332;-80
2023/08/17 10:12:30;;;;;;;1.80;1.70;;;28.00;54.80;;;;;;5148862;27;46236;-80
2023/08/17 10:15:00;;;;;;;2.08;1.90;;;28.00;54.70;;;;;;5148815;27;45318;-79
2023/08/17 10:17:28;;;;;;;2.60;2.40;;;28.10;54.70;;;;;;5149562;27;45390;-80
2023/08/17 10:19:57;;;;;;;2.00;1.90;;;28.10;54.80;;;;;;5149097;27;45252;-80
2023/08/17 10:22:29;;;;;;;2.05;1.85;;;28.10;54.90;;;;;;5148727;27;45322;-80
2023/08/17 10:24:56;;;;;;;2.30;2.10;;;28.20;54.90;;;;;;5148428;27;45378;-79
2023/08/17 10:27:23;;;;;;;4.65;2.40;;;28.20;55.00;;;;;;5148994;27;45236;-80
2023/08/17 10:29:50;;;;;;;2.25;2.05;;;28.20;55.00;;;;;;5148567;27;45398;-80
2023/08/17 10:32:17;;;;;;;2.30;2.10;;;28.30;55.00;;;;;;5148256;27;45286;-80
2023/08/17 10:34:45;;;;;;;2.15;1.95;;;28.30;55.00;;;;;;5148168;27;45479;-80
2023/08/17 10:37:12;;;;;;;2.13;1.92;;;28.30;55.00;;;;;;5148931;27;45401;-79
2023/08/17 10:39:41;;;;;;;2.30;2.10;;;28.30;55.00;;;;;;5148912;27;45330;-79
2023/08/17 10:42:08;;;;;;;2.28;2.08;;;28.30;54.90;;;;;;5147807;27;46391;-79
2023/08/17 10:44:40;;;;;;;2.55;2.35;;;28.40;55.00;;;;;;5148751;27;45315;-79
2023/08/17 10:47:23;;;;;;;3.17;2.20;;;28.40;55.00;;;;;;5148941;27;45460;-79
2023/08/17 10:49:51;;;;;;;2.10;1.90;;;28.50;54.90;;;;;;5148839;27;45407;-78
2023/08/17 10:52:26;;;;;;;2.38;2.17;;;28.50;54.90;;;;;;5148287;27;46372;-79
2023/08/17 10:54:53;;;;;;;2.30;2.10;;;28.60;54.80;;;;;;5148130;27;45512;-79
2023/08/17 10:57:30;;;;;;;1.98;1.83;;;28.60;54.70;;;;;;5148809;27;45381;-79
2023/08/17 11:00:17;;;;;;;2.42;1.92;;;28.70;54.70;;;;;;5149754;27;45193;-80
2023/08/17 11:02:47;;;;;;;2.30;2.10;;;28.80;54.60;;;;;;5147907;27;45361;-79
2023/08/17 11:05:17;;;;;;;2.05;1.85;;;28.80;54.50;;;;;;5147646;27;45385;-79
2023/08/17 11:07:45;;;;;;;2.97;2.10;;;28.90;54.60;;;;;;5148469;27;45294;-80
2023/08/17 11:10:12;;;;;;;2.17;1.98;;;28.90;55.10;;;;;;5148736;27;45291;-79
2023/08/17 11:12:41;;;;;;;2.22;2.03;;;29.00;54.50;;;;;;5148142;27;45376;-80
2023/08/17 11:15:09;;;;;;;4.18;2.40;;;29.00;54.40;;;;;;5148271;27;45273;-79
2023/08/17 11:17:36;;;;;;;2.08;1.98;;;29.10;54.40;;;;;;5148514;27;45384;-79
2023/08/17 11:20:04;;;;;;;2.22;2.05;;;29.20;54.30;;;;;;5149605;27;45365;-79
2023/08/17 11:22:32;;;;;;;2.10;1.98;;;29.20;54.10;;;;;;5149453;27;45682;-80
2023/08/17 11:24:59;;;;;;;2.20;2.00;;;29.30;54.00;;;;;;5151702;27;45186;-79
2023/08/17 11:27:27;;;;;;;2.22;2.08;;;29.40;53.80;;;;;;5159991;27;45267;-79
2023/08/17 11:29:54;;;;;;;2.28;1.92;;;29.50;53.80;;;;;;5163351;27;44751;-79
2023/08/17 11:32:21;;;;;;;3.80;2.22;;;29.60;53.50;;;;;;5167846;27;46670;-79
2023/08/17 11:34:48;;;;;;;2.50;2.25;;;29.60;53.60;;;;;;5159704;27;45317;-79
2023/08/17 11:37:15;;;;;;;2.58;2.38;;;29.70;53.50;;;;;;5161620;27;45324;-79
2023/08/17 11:39:43;;;;;;;2.47;2.28;;;29.70;53.40;;;;;;5158455;27;45270;-79
2023/08/17 11:42:10;;;;;;;2.15;2.05;;;29.80;53.40;;;;;;5148810;27;46673;-79
2023/08/17 11:44:36;;;;;;;2.40;2.20;;;29.80;53.40;;;;;;5155880;27;45394;-79
2023/08/17 11:47:03;;;;;;;2.75;2.40;;;29.90;53.40;;;;;;5155193;27;45315;-79
2023/08/17 11:49:31;;;;;;;2.00;1.90;;;30.00;53.10;;;;;;5157904;27;45309;-79
2023/08/17 11:51:58;;;;;;;2.42;2.05;;;30.00;53.20;;;;;;5158928;27;45484;-79
2023/08/17 11:54:25;;;;;;;2.38;2.10;;;30.10;53.10;;;;;;5154749;27;45455;-79
2023/08/17 11:56:53;;;;;;;3.78;2.25;;;30.10;52.90;;;;;;5152675;27;45303;-79
2023/08/17 11:59:20;;;;;;;2.60;2.25;;;30.20;52.90;;;;;;5151365;27;45485;-79
2023/08/17 12:01:47;;;;;;;2.17;2.08;;;30.30;52.40;;;;;;5151070;27;46435;-78
2023/08/17 12:04:14;;;;;;;3.78;2.30;;;30.40;52.60;;;;;;5150940;27;45843;-78
2023/08/17 12:06:46;;;;;;;3.00;2.33;;;30.40;52.40;;;;;;5150823;27;45496;-78
2023/08/17 12:09:13;;;;;;;2.15;1.95;;;30.50;52.40;;;;;;5151614;27;45288;-78
2023/08/17 12:11:40;;;;;;;2.50;2.30;;;30.60;53.00;;;;;;5150559;27;46767;-78
2023/08/17 12:14:11;;;;;;;2.55;2.17;;;30.60;52.30;;;;;;5151213;27;45409;-78
2023/08/17 12:16:47;;;;;;;2.53;2.03;;;30.70;52.20;;;;;;5151202;27;45359;-78
2023/08/17 12:19:14;;;;;;;2.25;2.10;;;30.70;52.10;;;;;;5151257;27;45471;-78
2023/08/17 12:21:41;;;;;;;5.35;2.22;;;30.80;52.70;;;;;;5150830;27;46966;-79
2023/08/17 12:24:10;;;;;;;2.00;1.90;;;30.80;51.90;;;;;;5150685;27;45318;-78
2023/08/17 12:26:37;;;;;;;2.10;1.95;;;30.90;51.30;;;;;;5150745;27;45194;-75
2023/08/17 12:29:06;;;;;;;2.60;2.40;;;31.00;51.60;;;;;;5150463;27;45358;-79
2023/08/17 12:31:35;;;;;;;2.25;2.05;;;31.00;51.50;;;;;;5150663;27;46957;-79
2023/08/17 12:34:02;;;;;;;2.10;2.00;;;31.20;51.50;;;;;;5144361;27;45329;-79
2023/08/17 12:36:29;;;;;;;2.28;2.05;;;31.10;51.50;;;;;;5139225;27;45303;-79
2023/08/17 12:38:55;;;;;;;2.22;2.05;;;31.10;51.70;;;;;;5151132;27;45401;-79
2023/08/17 12:41:22;;;;;;;2.83;1.98;;;31.10;51.70;;;;;;5150459;27;47323;-79
2023/08/17 12:43:49;;;;;;;2.17;2.00;;;31.20;51.50;;;;;;5150363;27;45274;-79
2023/08/17 12:46:16;;;;;;;2.58;2.35;;;31.10;51.70;;;;;;5134698;27;45400;-79
2023/08/17 12:48:44;;;;;;;2.53;2.25;;;31.10;51.80;;;;;;5136376;27;45477;-79